Terminal Aerodrome Forecast
Issued by NWS Grand Forks, ND

Home | Current Version | Previous Version | Text Only | Print | Product List | Glossary On
Versions: 1 2 3 4 5 6 7 8 9 10 11 12 13 14 15 16 17 18 19 20
000
FTUS43 KFGF 282300 RRA
TAFFAR
TAF
KFAR 282341Z 2900/2924 12006KT P6SM FEW035 BKN100
     FM290600 15008KT P6SM SCT035 OVC070
     FM291000 17009KT P6SM SCT020 OVC035
      TEMPO 2910/2913 4SM -FZDZSN OVC020
     FM291500 20011G20KT P6SM BKN035
     FM292000 32012G20KT 5SM -SN OVC025=

USA.gov is the U.S. government's official web portal to all federal, state and local government web resources and services.